Time;durP1;ratioP1;P1;durP2;ratioP2;P2;SDS_P1;SDS_P2;PMS_P1;PMS_P2;Temp;Humidity;BMP_temperature;BMP_pressure;BME280_temperature;BME280_humidity;BME280_pressure;Samples;Min_cycle;Max_cycle;Signal;HPM_P1;HPM_P2
2021/08/18 00:04:53;;;;;;;16.87;8.78;;;;;;;16.17;62.75;99998.38;21208028;81;99607;-82
2021/08/18 00:34:54;;;;;;;17.93;8.00;;;;;;;16.11;63.44;100010.38;21231266;82;99614;-85
2021/08/18 01:04:55;;;;;;;19.32;9.58;;;;;;;15.96;64.78;100005.69;21037737;81;100623;-84
2021/08/18 01:34:56;;;;;;;17.80;10.00;;;;;;;15.71;65.32;99989.28;21051740;81;100043;-84
2021/08/18 02:04:57;;;;;;;18.40;9.70;;;;;;;15.17;67.45;99998.23;21193941;80;100701;-83
2021/08/18 02:34:58;;;;;;;16.57;8.30;;;;;;;14.70;69.67;99996.48;21225261;80;100434;-84
2021/08/18 03:04:59;;;;;;;19.15;9.75;;;;;;;14.44;72.67;100002.72;21040715;82;100073;-83
2021/08/18 03:35:01;;;;;;;16.52;8.93;;;;;;;14.49;72.91;100029.19;21032821;81;99607;-84
2021/08/18 04:05:03;;;;;;;16.50;9.27;;;;;;;14.51;73.91;100049.70;21046045;81;99880;-83
2021/08/18 04:35:06;;;;;;;18.40;9.45;;;;;;;14.60;74.02;100053.39;20614935;83;99481;-83
2021/08/18 05:05:08;;;;;;;18.20;8.80;;;;;;;14.62;74.17;100061.48;21035027;80;99893;-84
2021/08/18 05:35:13;;;;;;;18.40;8.67;;;;;;;14.67;75.00;100053.30;21040182;82;99840;-87
2021/08/18 06:05:14;;;;;;;14.40;7.77;;;;;;;15.19;74.06;100076.79;21099788;81;100249;-83
2021/08/18 06:35:15;;;;;;;15.78;7.58;;;;;;;16.16;71.29;100095.97;20674653;82;99961;-85
2021/08/18 07:05:16;;;;;;;12.00;6.47;;;;;;;16.59;69.05;100119.84;21193891;82;99818;-83
2021/08/18 07:35:18;;;;;;;13.03;6.50;;;;;;;16.93;67.95;100118.98;21170566;81;99767;-84
2021/08/18 08:05:19;;;;;;;10.60;5.70;;;;;;;17.50;65.23;100122.18;21224743;82;99845;-81
2021/08/18 08:35:20;;;;;;;12.13;4.63;;;;;;;17.92;63.68;100135.14;21207816;80;99840;-85
2021/08/18 09:05:27;;;;;;;13.43;4.70;;;;;;;18.16;60.95;100135.16;21068862;81;99829;-86
2021/08/18 09:35:29;;;;;;;8.27;4.23;;;;;;;18.16;60.95;100135.16;21058675;82;99790;-81
2021/08/18 10:05:31;;;;;;;11.57;4.53;;;;;;;19.56;60.17;100141.77;21172992;80;99638;-88
2021/08/18 10:35:41;;;;;;;8.70;3.40;;;;;;;20.33;57.46;100140.73;21188235;82;99775;-86
2021/08/18 11:05:49;;;;;;;10.13;3.50;;;;;;;20.36;56.94;100123.05;21054301;81;99634;-85
2021/08/18 11:35:50;;;;;;;6.40;2.95;;;;;;;19.85;56.40;100132.69;21077193;82;99687;-82
2021/08/18 12:06:05;;;;;;;8.00;2.60;;;;;;;19.82;55.76;100119.59;20651702;83;99526;-86
2021/08/18 12:36:13;;;;;;;5.60;2.25;;;;;;;20.11;54.80;100095.92;20593909;84;99424;-84
2021/08/18 13:06:14;;;;;;;7.90;2.17;;;;;;;20.63;53.57;100091.95;21034212;81;99410;-81
2021/08/18 13:36:15;;;;;;;4.35;2.10;;;;;;;21.09;52.16;100042.12;21100951;81;99640;-82
2021/08/18 14:06:18;;;;;;;3.87;1.75;;;;;;;21.14;51.01;100044.33;20784897;81;99333;-84
2021/08/18 14:36:21;;;;;;;4.42;1.87;;;;;;;21.68;50.35;100015.86;20707806;82;99258;-82
2021/08/18 15:06:21;;;;;;;5.00;1.77;;;;;;;21.33;48.99;100029.81;21045273;81;99268;-81
2021/08/18 15:36:22;;;;;;;4.50;1.73;;;;;;;21.42;49.36;100006.08;21086501;82;99315;-81
2021/08/18 16:06:23;;;;;;;3.92;1.67;;;;;;;21.14;49.53;99998.16;21068903;82;99377;-83
2021/08/18 16:36:24;;;;;;;4.90;1.60;;;;;;;20.81;50.68;99976.66;21090051;80;99151;-84
2021/08/18 17:06:25;;;;;;;3.43;1.67;;;;;;;20.45;51.06;99983.38;21005191;80;99171;-82
2021/08/18 17:36:26;;;;;;;7.92;2.08;;;;;;;20.24;52.54;99986.33;20986408;80;99409;-81
2021/08/18 18:06:30;;;;;;;5.17;1.98;;;;;;;19.85;53.74;99992.44;21033423;80;99332;-82
2021/08/18 18:36:31;;;;;;;4.58;1.90;;;;;;;19.54;54.72;99999.05;21015335;81;99172;-82
2021/08/18 19:06:34;;;;;;;5.45;2.02;;;;;;;19.25;55.59;100001.17;20906281;82;99259;-82
2021/08/18 19:36:36;;;;;;;5.17;2.00;;;;;;;18.95;56.11;100005.23;20982452;82;100396;-81
2021/08/18 20:06:36;;;;;;;6.22;1.80;;;;;;;18.77;57.14;100003.59;21026523;80;99913;-81
2021/08/18 20:36:42;;;;;;;4.20;1.80;;;;;;;18.52;57.68;99991.58;20903709;82;99450;-86
2021/08/18 21:06:43;;;;;;;4.93;1.67;;;;;;;18.38;58.69;99998.93;20879581;82;99683;-81
2021/08/18 21:36:44;;;;;;;5.42;2.20;;;;;;;18.27;60.04;99996.41;20886393;81;99068;-82
2021/08/18 22:06:45;;;;;;;5.07;2.17;;;;;;;18.08;60.16;99984.77;20730616;82;99202;-82
2021/08/18 22:36:47;;;;;;;5.17;1.70;;;;;;;17.60;61.39;99976.45;20682007;82;99109;-81
2021/08/18 23:06:49;;;;;;;4.93;1.90;;;;;;;17.23;63.63;99959.47;20659876;81;99139;-82
2021/08/18 23:36:50;;;;;;;3.70;2.10;;;;;;;17.37;64.20;99975.20;20567693;84;99459;-80
